createdAt,value
2018-01-23T17:21:41.757Z,2.43
2018-01-23T17:24:10.462Z,2.07
2018-01-23T17:26:38.913Z,2.80
2018-01-23T17:29:07.391Z,2.70
2018-01-23T17:31:36.588Z,2.60
2018-01-23T17:34:05.798Z,2.90
2018-01-23T17:36:35.003Z,2.60
2018-01-23T17:39:03.522Z,2.20
2018-01-23T17:41:31.955Z,2.60
2018-01-23T17:44:01.201Z,2.33
2018-01-23T17:46:29.672Z,2.77
2018-01-23T17:48:58.287Z,2.70
2018-01-23T17:51:26.701Z,2.90
2018-01-23T17:53:56.000Z,2.63
2018-01-23T17:56:25.357Z,2.40
2018-01-23T17:58:53.826Z,2.40
2018-01-23T18:01:22.467Z,2.57
2018-01-23T18:03:51.021Z,2.10
2018-01-23T18:06:19.523Z,2.23
2018-01-23T18:08:48.105Z,2.80
2018-01-23T18:11:17.409Z,2.60
2018-01-23T18:13:46.877Z,2.53
2018-01-23T18:16:15.408Z,2.60
2018-01-23T18:18:43.929Z,2.93
2018-01-23T18:21:12.532Z,2.50
2018-01-23T18:23:41.148Z,2.60
2018-01-23T18:26:10.452Z,2.40
2018-01-23T18:28:39.036Z,2.63
2018-01-23T18:31:08.294Z,2.67
2018-01-23T18:33:36.771Z,2.80
2018-01-23T18:36:05.341Z,2.40
2018-01-23T18:38:33.821Z,2.53
2018-01-23T18:41:02.685Z,2.57
2018-01-23T18:43:31.933Z,2.47
2018-01-23T18:46:00.434Z,2.50
2018-01-23T18:48:28.911Z,2.63
2018-01-23T18:50:57.363Z,2.87
2018-01-23T18:53:26.088Z,3.07
2018-01-23T18:55:55.400Z,3.17
2018-01-23T18:58:23.938Z,2.50
2018-01-23T19:00:52.733Z,2.73
2018-01-23T19:03:21.240Z,2.87
2018-01-23T19:05:49.800Z,4.47
2018-01-23T19:08:18.303Z,2.57
2018-01-23T19:10:46.909Z,2.77
2018-01-23T19:13:15.547Z,2.97
2018-01-23T19:15:44.052Z,2.60
2018-01-23T19:18:12.528Z,2.80
2018-01-23T19:20:41.745Z,3.07
2018-01-23T19:23:11.732Z,3.17
2018-01-23T19:25:40.196Z,2.80
2018-01-23T19:28:08.754Z,2.60
2018-01-23T19:30:38.309Z,2.83
2018-01-23T19:33:06.764Z,2.77
2018-01-23T19:35:35.466Z,2.80
2018-01-23T19:38:03.981Z,2.80
2018-01-23T19:40:32.628Z,2.73
2018-01-23T19:43:01.111Z,2.90
2018-01-23T19:45:29.559Z,2.60
2018-01-23T19:47:58.942Z,2.60
2018-01-23T19:50:27.582Z,2.97
2018-01-23T19:52:56.049Z,2.93
2018-01-23T19:55:25.265Z,2.80
2018-01-23T19:57:53.769Z,3.47
2018-01-23T20:00:22.228Z,3.27
2018-01-23T20:02:50.699Z,3.20
2018-01-23T20:05:19.510Z,2.93
2018-01-23T20:07:48.062Z,3.20
2018-01-23T20:10:17.302Z,3.50
2018-01-23T20:12:45.829Z,3.17
2018-01-23T20:15:14.544Z,3.10
2018-01-23T20:17:43.013Z,3.27
2018-01-23T20:20:12.254Z,3.17
2018-01-23T20:22:40.738Z,4.57
2018-01-23T20:25:09.231Z,5.00
2018-01-23T20:27:37.701Z,5.00
2018-01-23T20:30:06.198Z,4.80
2018-01-23T20:32:35.557Z,4.57
2018-01-23T20:35:04.011Z,4.30
2018-01-23T20:37:33.282Z,4.53
2018-01-23T20:40:01.738Z,4.90
2018-01-23T20:42:30.233Z,5.20
2018-01-23T20:44:59.824Z,4.63
2018-01-23T20:47:28.416Z,4.37
2018-01-23T20:49:57.051Z,4.80
2018-01-23T20:52:25.565Z,5.13
2018-01-23T20:54:54.169Z,4.90
2018-01-23T20:57:22.644Z,4.20
2018-01-23T20:59:51.413Z,5.20
2018-01-23T21:02:19.937Z,7.03
2018-01-23T21:04:48.387Z,6.60
2018-01-23T21:07:16.853Z,5.57
2018-01-23T21:09:45.338Z,4.90
2018-01-23T21:12:13.829Z,4.67
2018-01-23T21:14:43.191Z,4.87
2018-01-23T21:17:11.666Z,4.33
2018-01-23T21:19:40.456Z,3.83
2018-01-23T21:22:09.754Z,2.97
2018-01-23T21:24:38.999Z,4.93
2018-01-23T21:27:07.865Z,4.20
2018-01-23T21:29:37.180Z,3.97
2018-01-23T21:32:05.772Z,4.37
2018-01-23T21:34:34.459Z,4.73
2018-01-23T21:37:03.090Z,5.23
2018-01-23T21:39:31.681Z,5.23
2018-01-23T21:42:00.196Z,5.23
2018-01-23T21:44:28.768Z,5.30
2018-01-23T21:46:58.058Z,5.50
2018-01-23T21:49:27.554Z,5.50
2018-01-23T21:51:56.123Z,4.73
2018-01-23T21:54:24.631Z,5.07
2018-01-23T21:56:53.855Z,4.17
2018-01-23T21:59:22.316Z,3.50
2018-01-23T22:01:51.573Z,2.77
2018-01-23T22:04:20.202Z,2.90
2018-01-23T22:06:49.464Z,2.93
2018-01-23T22:09:17.998Z,3.20
2018-01-23T22:11:46.433Z,4.00
2018-01-23T22:14:14.972Z,4.20
2018-01-23T22:16:43.542Z,3.07
2018-01-23T22:19:11.989Z,3.23
2018-01-23T22:21:40.492Z,2.90
2018-01-23T22:24:09.780Z,3.57
2018-01-23T22:26:39.091Z,4.30
2018-01-23T22:29:08.330Z,4.40
2018-01-23T22:31:38.728Z,4.57
2018-01-23T22:34:08.035Z,4.47
2018-01-23T22:36:37.389Z,4.53
2018-01-23T22:39:06.736Z,4.17
2018-01-23T22:41:35.952Z,4.43
2018-01-23T22:44:05.185Z,4.50
2018-01-23T22:46:33.797Z,4.30
2018-01-23T22:49:02.302Z,3.47
2018-01-23T22:51:32.282Z,3.33
2018-01-23T22:54:00.818Z,3.67
2018-01-23T22:56:30.038Z,3.40
2018-01-23T22:58:58.606Z,3.50
2018-01-23T23:01:27.931Z,3.63
2018-01-23T23:03:56.625Z,3.53
2018-01-23T23:06:25.230Z,2.97
2018-01-23T23:08:53.950Z,2.90
2018-01-23T23:11:22.448Z,2.73
2018-01-23T23:13:51.709Z,2.20
2018-01-23T23:16:20.380Z,2.07
2018-01-23T23:18:49.027Z,2.00
2018-01-23T23:21:18.360Z,1.70
2018-01-23T23:23:46.850Z,1.60
2018-01-23T23:26:15.430Z,1.67
2018-01-23T23:28:43.965Z,1.50
2018-01-23T23:31:13.273Z,1.67
2018-01-23T23:33:41.807Z,1.50
2018-01-23T23:36:10.307Z,1.40
2018-01-23T23:38:38.700Z,1.50
2018-01-23T23:41:07.134Z,1.80
2018-01-23T23:43:35.545Z,2.07
2018-01-23T23:46:03.982Z,2.90
2018-01-23T23:48:33.164Z,2.30
2018-01-23T23:51:02.335Z,2.67
2018-01-23T23:53:30.956Z,1.90
2018-01-23T23:56:00.125Z,1.53
2018-01-23T23:58:28.654Z,1.97
